createdAt,value
2019-03-27T00:01:41.476Z,16.07
2019-03-27T00:04:12.701Z,9.30
2019-03-27T00:06:44.000Z,11.90
2019-03-27T00:09:17.535Z,15.27
2019-03-27T00:11:48.717Z,9.50
2019-03-27T00:14:20.510Z,13.17
2019-03-27T00:16:52.346Z,10.87
2019-03-27T00:19:23.667Z,14.33
2019-03-27T00:21:55.322Z,14.00
2019-03-27T00:24:27.614Z,13.07
2019-03-27T00:27:00.066Z,11.23
2019-03-27T00:29:31.769Z,20.63
2019-03-27T00:32:04.648Z,17.57
2019-03-27T00:34:35.891Z,18.10
2019-03-27T00:37:07.136Z,11.63
2019-03-27T00:39:38.390Z,17.67
2019-03-27T00:42:11.152Z,15.57
2019-03-27T00:44:43.232Z,15.07
2019-03-27T00:47:14.862Z,18.80
2019-03-27T00:49:48.157Z,15.70
2019-03-27T00:52:19.464Z,19.43
2019-03-27T00:54:50.863Z,13.17
2019-03-27T00:57:22.615Z,14.90
2019-03-27T00:59:55.388Z,15.17
2019-03-27T01:02:26.768Z,15.60
2019-03-27T01:04:58.297Z,18.40
2019-03-27T01:07:31.054Z,13.20
2019-03-27T01:10:03.007Z,18.17
2019-03-27T01:12:34.361Z,17.90
2019-03-27T01:15:08.934Z,19.10
2019-03-27T01:17:40.429Z,11.57
2019-03-27T01:20:13.116Z,15.33
2019-03-27T01:22:45.118Z,12.50
2019-03-27T01:25:17.107Z,13.60
2019-03-27T01:27:48.374Z,12.80
2019-03-27T01:30:19.751Z,20.43
2019-03-27T01:32:52.578Z,13.00
2019-03-27T01:35:24.699Z,17.33
2019-03-27T01:37:56.173Z,14.03
2019-03-27T01:40:27.416Z,15.17
2019-03-27T01:42:59.887Z,15.30
2019-03-27T01:45:31.881Z,17.07
2019-03-27T01:48:04.493Z,22.50
2019-03-27T01:50:35.731Z,19.63
2019-03-27T01:53:07.766Z,20.80
2019-03-27T01:55:39.498Z,21.43
2019-03-27T01:58:12.456Z,17.07
2019-03-27T02:00:45.314Z,15.70
2019-03-27T02:03:17.926Z,14.77
2019-03-27T02:05:49.801Z,22.10
2019-03-27T02:08:41.090Z,22.83
2019-03-27T02:11:12.799Z,18.13
2019-03-27T02:13:44.043Z,17.73
2019-03-27T02:16:15.366Z,18.20
2019-03-27T02:18:47.545Z,14.80
2019-03-27T02:21:18.944Z,14.80
2019-03-27T02:23:50.419Z,20.17
2019-03-27T02:26:21.870Z,21.17
2019-03-27T02:28:54.778Z,24.77
2019-03-27T02:31:26.019Z,19.03
2019-03-27T02:33:57.446Z,19.83
2019-03-27T02:36:30.313Z,19.63
2019-03-27T02:39:01.561Z,17.60
2019-03-27T02:41:32.832Z,21.43
2019-03-27T02:44:04.609Z,16.63
2019-03-27T02:46:37.927Z,25.93
2019-03-27T02:49:10.273Z,18.70
2019-03-27T02:51:41.617Z,23.17
2019-03-27T02:54:12.946Z,14.50
2019-03-27T02:56:45.116Z,19.63
2019-03-27T02:59:16.417Z,21.90
2019-03-27T03:01:48.870Z,25.87
2019-03-27T03:04:21.404Z,23.63
2019-03-27T03:06:52.792Z,19.20
2019-03-27T03:09:25.777Z,15.27
2019-03-27T03:11:57.031Z,18.93
2019-03-27T03:14:28.307Z,16.63
2019-03-27T03:16:59.735Z,17.93
2019-03-27T03:19:30.984Z,19.27
2019-03-27T03:22:05.700Z,19.33
2019-03-27T03:24:37.549Z,20.73
2019-03-27T03:27:09.929Z,19.07
2019-03-27T03:29:41.191Z,19.53
2019-03-27T03:32:12.435Z,16.60
2019-03-27T03:34:45.154Z,18.77
2019-03-27T03:37:16.616Z,18.97
2019-03-27T03:39:48.732Z,17.83
2019-03-27T03:42:20.574Z,17.13
2019-03-27T03:44:52.706Z,18.00
2019-03-27T03:47:27.363Z,21.47
2019-03-27T03:49:58.636Z,23.37
2019-03-27T03:52:32.082Z,24.40
2019-03-27T03:55:05.452Z,21.77
2019-03-27T03:57:39.242Z,20.47
2019-03-27T04:00:11.619Z,20.13
2019-03-27T04:02:45.366Z,20.90
2019-03-27T04:05:22.847Z,19.23
2019-03-27T04:07:56.445Z,19.50
2019-03-27T04:10:27.889Z,20.63
2019-03-27T04:13:02.301Z,21.33
2019-03-27T04:15:33.727Z,20.87
2019-03-27T04:18:06.547Z,16.80
2019-03-27T04:20:38.033Z,16.53
2019-03-27T04:23:09.794Z,20.37
2019-03-27T04:26:07.182Z,25.10
2019-03-27T04:28:16.611Z,21.57
2019-03-27T04:30:48.580Z,20.03
2019-03-27T04:33:20.821Z,16.77
2019-03-27T04:35:52.161Z,23.63
2019-03-27T04:38:24.381Z,18.83
2019-03-27T04:40:55.627Z,21.30
2019-03-27T04:43:28.044Z,28.27
2019-03-27T04:46:03.131Z,22.73
2019-03-27T04:48:32.483Z,19.10
2019-03-27T04:51:04.268Z,22.27
2019-03-27T04:53:42.905Z,19.43
2019-03-27T04:56:14.724Z,21.00
2019-03-27T04:58:46.001Z,25.90
2019-03-27T05:01:19.472Z,26.90
2019-03-27T05:03:52.278Z,25.20
2019-03-27T05:06:23.540Z,21.40
2019-03-27T05:08:54.807Z,21.97
2019-03-27T05:11:26.734Z,26.70
2019-03-27T05:13:59.424Z,22.87
2019-03-27T05:16:31.709Z,21.20
2019-03-27T05:19:03.067Z,21.87
2019-03-27T05:21:35.620Z,20.13
2019-03-27T05:24:09.223Z,18.77
2019-03-27T05:26:40.541Z,24.33
2019-03-27T05:29:11.915Z,29.97
2019-03-27T05:31:44.309Z,22.20
2019-03-27T05:34:17.101Z,25.83
2019-03-27T05:36:49.373Z,21.93
2019-03-27T05:39:20.636Z,24.90
2019-03-27T05:41:51.918Z,24.47
2019-03-27T05:44:23.368Z,20.37
2019-03-27T05:46:54.880Z,20.40
2019-03-27T05:49:26.503Z,23.83
2019-03-27T05:51:58.211Z,22.70
2019-03-27T05:54:29.576Z,24.73
2019-03-27T05:57:01.897Z,21.40
2019-03-27T05:59:34.802Z,21.73
2019-03-27T06:02:06.111Z,21.97
2019-03-27T06:04:38.676Z,20.17
2019-03-27T06:07:11.568Z,20.93
2019-03-27T06:09:44.716Z,23.50
2019-03-27T06:12:20.309Z,23.90
2019-03-27T06:14:51.631Z,24.50
2019-03-27T06:17:23.083Z,25.20
2019-03-27T06:19:54.345Z,30.33
2019-03-27T06:22:26.692Z,21.80
2019-03-27T06:24:58.060Z,24.97
2019-03-27T06:27:29.394Z,21.17
2019-03-27T06:30:01.679Z,22.40
2019-03-27T06:32:33.941Z,28.17
2019-03-27T06:35:06.808Z,21.33
2019-03-27T06:37:39.751Z,23.77
2019-03-27T06:40:11.558Z,23.27
2019-03-27T06:42:43.744Z,20.93
2019-03-27T06:45:16.487Z,23.00
2019-03-27T06:47:47.755Z,25.53
2019-03-27T06:50:21.956Z,25.20
2019-03-27T06:52:52.678Z,25.77
2019-03-27T06:55:24.616Z,24.30
2019-03-27T06:57:58.709Z,28.13
2019-03-27T07:00:39.986Z,19.20
2019-03-27T07:03:11.296Z,20.23
2019-03-27T07:05:43.376Z,23.10
2019-03-27T07:08:15.691Z,18.83
2019-03-27T07:10:49.105Z,27.63
2019-03-27T07:13:20.365Z,19.40
2019-03-27T07:15:51.644Z,21.97
2019-03-27T07:18:39.238Z,18.77
2019-03-27T07:20:59.688Z,23.43
2019-03-27T07:23:31.090Z,17.43
2019-03-27T07:26:04.306Z,19.73
2019-03-27T07:28:43.468Z,22.83
2019-03-27T07:31:16.166Z,17.30
2019-03-27T07:33:48.954Z,16.57
2019-03-27T07:36:21.190Z,16.97
2019-03-27T07:38:52.522Z,16.27
2019-03-27T07:41:25.229Z,20.60
2019-03-27T07:43:57.438Z,17.97
2019-03-27T07:46:29.370Z,18.70
2019-03-27T07:49:00.688Z,21.83
2019-03-27T07:51:32.157Z,16.07
2019-03-27T07:54:03.812Z,20.37
2019-03-27T07:56:35.206Z,22.63
2019-03-27T07:59:06.577Z,17.50
2019-03-27T08:01:44.226Z,19.80
2019-03-27T08:04:15.523Z,18.83
2019-03-27T08:06:47.666Z,20.10
2019-03-27T08:09:19.193Z,18.33
2019-03-27T08:11:50.669Z,16.37
2019-03-27T08:14:23.023Z,15.07
2019-03-27T08:16:57.834Z,17.87
2019-03-27T08:19:29.137Z,14.33
2019-03-27T08:22:02.977Z,17.10
2019-03-27T08:24:35.869Z,12.47
2019-03-27T08:27:07.190Z,17.30
2019-03-27T08:29:38.460Z,16.63
2019-03-27T08:32:10.794Z,18.33
2019-03-27T08:34:43.454Z,11.97
2019-03-27T08:37:15.977Z,9.90
2019-03-27T08:39:49.110Z,16.13
2019-03-27T08:42:21.301Z,11.80
2019-03-27T08:44:52.696Z,12.47
2019-03-27T08:47:24.091Z,11.20
2019-03-27T08:49:55.345Z,10.80
2019-03-27T08:52:28.043Z,11.93
2019-03-27T08:55:00.531Z,11.57
2019-03-27T08:57:32.265Z,7.33
2019-03-27T09:00:03.516Z,11.33
2019-03-27T09:02:34.775Z,8.23
2019-03-27T09:05:07.744Z,11.53
2019-03-27T09:07:39.109Z,8.43
2019-03-27T09:10:11.718Z,7.83
2019-03-27T09:12:43.740Z,8.90
2019-03-27T09:15:16.875Z,9.90
2019-03-27T09:17:48.139Z,7.50
2019-03-27T09:20:19.616Z,7.97
2019-03-27T09:22:50.903Z,10.37
2019-03-27T09:25:22.186Z,6.90
2019-03-27T09:27:53.501Z,9.30
2019-03-27T09:30:25.715Z,9.53
2019-03-27T09:32:56.979Z,7.63
2019-03-27T09:35:28.331Z,10.67
2019-03-27T09:37:59.719Z,8.50
2019-03-27T09:40:30.971Z,7.53
2019-03-27T09:43:02.363Z,7.27
2019-03-27T09:45:33.740Z,8.93
2019-03-27T09:48:05.192Z,10.07
2019-03-27T09:50:36.536Z,7.77
2019-03-27T09:53:07.979Z,7.90
2019-03-27T09:55:39.321Z,8.60
2019-03-27T09:58:10.603Z,10.60
2019-03-27T10:01:02.423Z,6.83
2019-03-27T10:03:33.677Z,7.47
2019-03-27T10:06:04.938Z,7.70
2019-03-27T10:08:36.324Z,6.90
2019-03-27T10:11:07.751Z,9.63
2019-03-27T10:13:39.211Z,6.70
2019-03-27T10:16:10.879Z,7.10
2019-03-27T10:18:42.239Z,6.63
2019-03-27T10:21:13.492Z,10.93
2019-03-27T10:23:46.233Z,8.60
2019-03-27T10:26:18.587Z,8.00
2019-03-27T10:28:51.441Z,10.03
2019-03-27T10:31:22.738Z,7.03
2019-03-27T10:33:55.252Z,4.70
2019-03-27T10:36:27.698Z,9.03
2019-03-27T10:38:58.936Z,7.17
2019-03-27T10:41:34.015Z,5.40
2019-03-27T10:44:05.902Z,6.00
2019-03-27T10:46:39.691Z,5.03
2019-03-27T10:49:11.440Z,7.97
2019-03-27T10:51:42.847Z,3.37
2019-03-27T10:54:14.102Z,6.43
2019-03-27T10:56:45.400Z,4.97
2019-03-27T10:59:16.705Z,6.33
2019-03-27T11:01:48.051Z,5.63
2019-03-27T11:04:20.895Z,4.70
2019-03-27T11:06:52.617Z,4.43
2019-03-27T11:09:24.786Z,7.33
2019-03-27T11:11:57.111Z,5.47
2019-03-27T11:14:37.773Z,3.67
2019-03-27T11:17:03.245Z,6.53
2019-03-27T11:19:35.066Z,5.13
2019-03-27T11:22:07.941Z,4.27
2019-03-27T11:24:39.488Z,4.20
2019-03-27T11:27:10.832Z,7.40
2019-03-27T11:29:42.913Z,6.50
2019-03-27T11:32:14.975Z,5.60
2019-03-27T11:34:50.452Z,6.43
2019-03-27T11:37:24.062Z,5.17
2019-03-27T11:39:55.621Z,6.70
2019-03-27T11:42:26.897Z,4.47
2019-03-27T11:44:58.253Z,7.50
2019-03-27T11:47:29.517Z,5.57
2019-03-27T11:50:00.775Z,4.30
2019-03-27T11:52:32.097Z,3.87
2019-03-27T11:55:03.515Z,4.53
2019-03-27T11:57:34.926Z,3.83
2019-03-27T12:00:07.707Z,3.30
2019-03-27T12:02:38.972Z,3.77
2019-03-27T12:05:10.803Z,6.00
2019-03-27T12:07:42.069Z,3.40
2019-03-27T12:10:13.880Z,4.57
2019-03-27T12:12:48.045Z,7.53
2019-03-27T12:15:30.684Z,5.70
2019-03-27T12:18:01.952Z,3.80
2019-03-27T12:20:33.228Z,4.43
2019-03-27T12:23:04.621Z,4.03
2019-03-27T12:25:35.857Z,3.77
2019-03-27T12:28:07.513Z,3.63
2019-03-27T12:30:38.783Z,6.30
2019-03-27T12:33:10.223Z,3.57
2019-03-27T12:35:41.456Z,6.00
2019-03-27T12:38:12.751Z,5.73
2019-03-27T12:40:44.110Z,5.87
2019-03-27T12:43:15.479Z,5.20
2019-03-27T12:45:46.785Z,6.27
2019-03-27T12:48:18.094Z,6.97
2019-03-27T12:50:49.346Z,5.00
2019-03-27T12:53:20.617Z,5.53
2019-03-27T12:55:51.999Z,7.37
2019-03-27T12:58:26.367Z,5.00
2019-03-27T13:01:00.533Z,8.00
2019-03-27T13:03:36.935Z,5.67
2019-03-27T13:06:08.162Z,6.73
2019-03-27T13:08:39.420Z,4.00
2019-03-27T13:11:10.704Z,8.03
2019-03-27T13:13:41.970Z,7.07
2019-03-27T13:16:13.220Z,5.43
2019-03-27T13:18:44.508Z,5.53
2019-03-27T13:21:25.737Z,6.97
2019-03-27T13:23:48.741Z,4.60
2019-03-27T13:26:20.196Z,6.97
2019-03-27T13:28:51.881Z,6.53
2019-03-27T13:31:23.366Z,6.23
2019-03-27T13:33:55.794Z,6.70
2019-03-27T13:36:27.958Z,11.00
2019-03-27T13:39:01.004Z,7.23
2019-03-27T13:41:33.155Z,7.70
2019-03-27T13:44:05.566Z,8.87
2019-03-27T13:46:38.008Z,6.70
2019-03-27T13:49:10.165Z,6.93
2019-03-27T13:51:41.905Z,8.97
2019-03-27T13:54:13.201Z,11.97
2019-03-27T13:56:44.524Z,10.17
2019-03-27T13:59:15.779Z,7.60
2019-03-27T14:01:47.036Z,8.83
2019-03-27T14:04:18.310Z,8.90
2019-03-27T14:06:49.580Z,9.60
2019-03-27T14:09:20.849Z,10.57
2019-03-27T14:11:52.359Z,8.50
2019-03-27T14:14:24.769Z,7.80
2019-03-27T14:16:58.012Z,8.87
2019-03-27T14:19:33.262Z,9.50
2019-03-27T14:22:06.562Z,9.07
2019-03-27T14:24:38.466Z,9.30
2019-03-27T14:27:13.097Z,8.50
2019-03-27T14:29:46.244Z,9.57
2019-03-27T14:32:17.628Z,8.40
2019-03-27T14:34:49.319Z,11.17
2019-03-27T14:37:22.776Z,14.10
2019-03-27T14:39:54.449Z,7.53
2019-03-27T14:42:26.556Z,9.23
2019-03-27T14:44:59.483Z,7.00
2019-03-27T14:47:32.644Z,8.07
2019-03-27T14:50:05.701Z,8.17
2019-03-27T14:52:37.128Z,6.47
2019-03-27T14:55:11.824Z,6.33
2019-03-27T14:57:44.423Z,6.67
2019-03-27T15:00:16.845Z,5.97
2019-03-27T15:02:48.093Z,6.17
2019-03-27T15:05:19.738Z,7.67
2019-03-27T15:07:51.776Z,7.80
2019-03-27T15:10:25.475Z,6.03
2019-03-27T15:12:56.825Z,5.10
2019-03-27T15:15:29.849Z,6.57
2019-03-27T15:18:01.374Z,5.27
2019-03-27T15:20:33.030Z,5.30
2019-03-27T15:23:04.780Z,5.87
2019-03-27T15:25:39.996Z,5.57
2019-03-27T15:28:13.162Z,6.00
2019-03-27T15:30:44.461Z,6.30
2019-03-27T15:33:16.607Z,5.40
2019-03-27T15:35:48.693Z,6.57
2019-03-27T15:38:19.931Z,6.37
2019-03-27T15:40:52.004Z,5.40
2019-03-27T15:43:24.126Z,6.27
2019-03-27T15:45:57.068Z,6.17
2019-03-27T15:48:29.505Z,5.70
2019-03-27T15:51:01.368Z,5.40
2019-03-27T15:53:33.581Z,4.73
2019-03-27T15:56:05.652Z,5.67
2019-03-27T15:58:38.405Z,5.33
2019-03-27T16:01:11.312Z,5.10
2019-03-27T16:03:48.058Z,5.90
2019-03-27T16:06:22.909Z,8.73
2019-03-27T16:08:54.912Z,5.27
2019-03-27T16:11:27.804Z,6.37
2019-03-27T16:14:00.316Z,4.93
2019-03-27T16:16:32.635Z,5.20
2019-03-27T16:19:05.110Z,6.27
2019-03-27T16:21:37.817Z,5.20
2019-03-27T16:24:09.325Z,5.97
2019-03-27T16:26:42.753Z,5.70
2019-03-27T16:29:14.049Z,5.63
2019-03-27T16:31:46.672Z,6.70
2019-03-27T16:34:17.915Z,6.37
2019-03-27T16:36:50.015Z,6.50
2019-03-27T16:39:21.231Z,7.17
2019-03-27T16:41:52.592Z,7.20
2019-03-27T16:44:24.703Z,7.80
2019-03-27T16:46:57.167Z,7.50
2019-03-27T16:49:28.737Z,7.70
2019-03-27T16:52:01.460Z,8.70
2019-03-27T16:54:32.804Z,8.40
2019-03-27T16:57:04.178Z,8.43
2019-03-27T16:59:37.099Z,9.20
2019-03-27T17:02:09.644Z,10.67
2019-03-27T17:04:40.941Z,10.20
2019-03-27T17:07:12.355Z,10.37
2019-03-27T17:09:43.618Z,10.23
2019-03-27T17:12:16.386Z,10.03
2019-03-27T17:14:47.663Z,9.70
2019-03-27T17:17:18.892Z,9.13
2019-03-27T17:19:50.207Z,11.83
2019-03-27T17:22:21.533Z,9.93
2019-03-27T17:24:55.866Z,11.07
2019-03-27T17:27:26.041Z,10.70
2019-03-27T17:29:57.307Z,11.00
2019-03-27T17:32:28.563Z,12.17
2019-03-27T17:34:59.835Z,13.37
2019-03-27T17:37:31.175Z,12.30
2019-03-27T17:40:02.461Z,13.50
2019-03-27T17:42:33.800Z,15.23
2019-03-27T17:45:05.315Z,15.67
2019-03-27T17:47:37.964Z,14.57
2019-03-27T17:50:13.010Z,13.47
2019-03-27T17:52:50.730Z,15.30
2019-03-27T17:55:23.282Z,14.53
2019-03-27T17:57:54.541Z,14.60
2019-03-27T18:00:52.525Z,13.20
2019-03-27T18:03:32.848Z,13.80
2019-03-27T18:06:04.920Z,15.90
2019-03-27T18:08:36.643Z,16.67
2019-03-27T18:11:08.351Z,17.23
2019-03-27T18:13:40.481Z,17.50
2019-03-27T18:16:16.752Z,16.77
2019-03-27T18:18:47.746Z,16.93
2019-03-27T18:21:21.399Z,17.37
2019-03-27T18:23:53.747Z,16.43
2019-03-27T18:26:25.118Z,17.33
2019-03-27T18:28:57.419Z,17.47
2019-03-27T18:31:28.771Z,18.10
2019-03-27T18:34:01.303Z,17.90
2019-03-27T18:36:32.614Z,18.20
2019-03-27T18:39:07.570Z,17.37
2019-03-27T18:41:38.822Z,18.23
2019-03-27T18:44:10.197Z,19.63
2019-03-27T18:46:45.462Z,18.80
2019-03-27T18:49:17.801Z,18.50
2019-03-27T18:51:50.954Z,20.53
2019-03-27T18:54:23.624Z,18.27
2019-03-27T18:56:56.027Z,15.60
2019-03-27T18:59:27.506Z,16.70
2019-03-27T19:01:58.873Z,17.23
2019-03-27T19:04:31.031Z,18.30
2019-03-27T19:07:04.236Z,16.73
2019-03-27T19:09:40.440Z,15.50
2019-03-27T19:12:12.431Z,15.90
2019-03-27T19:14:43.743Z,15.23
2019-03-27T19:17:16.662Z,14.70
2019-03-27T19:19:48.881Z,11.70
2019-03-27T19:22:20.480Z,14.73
2019-03-27T19:24:53.069Z,11.47
2019-03-27T19:27:24.857Z,11.43
2019-03-27T19:29:56.469Z,15.47
2019-03-27T19:32:29.036Z,12.90
2019-03-27T19:35:02.245Z,11.60
2019-03-27T19:37:35.074Z,13.57
2019-03-27T19:40:07.825Z,13.33
2019-03-27T19:42:41.136Z,13.20
2019-03-27T19:45:13.022Z,13.37
2019-03-27T19:47:45.539Z,13.57
2019-03-27T19:50:18.656Z,14.80
2019-03-27T19:52:53.826Z,13.30
2019-03-27T19:55:25.212Z,14.30
2019-03-27T19:57:57.192Z,16.83
2019-03-27T20:00:29.445Z,16.10
2019-03-27T20:03:02.220Z,18.10
2019-03-27T20:05:33.605Z,15.77
2019-03-27T20:08:04.927Z,15.33
2019-03-27T20:10:36.252Z,15.20
2019-03-27T20:13:09.768Z,17.40
2019-03-27T20:15:41.910Z,18.30
2019-03-27T20:18:15.025Z,14.23
2019-03-27T20:20:46.464Z,17.27
2019-03-27T20:23:20.864Z,16.70
2019-03-27T20:25:52.182Z,16.47
2019-03-27T20:28:23.523Z,14.90
2019-03-27T20:30:56.471Z,17.03
2019-03-27T20:33:27.996Z,17.00
2019-03-27T20:35:59.383Z,20.80
2019-03-27T20:38:30.862Z,18.33
2019-03-27T20:41:02.652Z,20.77
2019-03-27T20:43:34.013Z,18.43
2019-03-27T20:46:05.297Z,20.50
2019-03-27T20:48:37.525Z,16.20
2019-03-27T20:51:08.954Z,18.50
2019-03-27T20:53:41.052Z,19.07
2019-03-27T20:56:13.800Z,21.13
2019-03-27T20:58:45.916Z,18.83
2019-03-27T21:01:19.401Z,18.80
2019-03-27T21:03:52.148Z,19.50
2019-03-27T21:06:23.685Z,18.03
2019-03-27T21:08:56.087Z,18.30
2019-03-27T21:11:28.033Z,20.53
2019-03-27T21:14:02.909Z,20.13
2019-03-27T21:16:36.265Z,20.37
2019-03-27T21:19:08.731Z,20.70
2019-03-27T21:21:42.172Z,18.53
2019-03-27T21:24:14.347Z,21.47
2019-03-27T21:26:47.791Z,20.80
2019-03-27T21:29:19.865Z,22.60
2019-03-27T21:31:51.768Z,16.53
2019-03-27T21:34:24.369Z,20.83
2019-03-27T21:36:55.731Z,23.93
2019-03-27T21:39:27.480Z,21.73
2019-03-27T21:42:00.579Z,21.47
2019-03-27T21:44:32.434Z,19.10
2019-03-27T21:47:05.363Z,21.43
2019-03-27T21:49:37.074Z,21.23
2019-03-27T21:52:09.494Z,20.30
2019-03-27T21:54:42.125Z,24.80
2019-03-27T21:57:15.696Z,22.80
2019-03-27T21:59:50.308Z,24.67
2019-03-27T22:02:23.783Z,23.87
2019-03-27T22:04:55.879Z,27.07
2019-03-27T22:07:27.128Z,27.13
2019-03-27T22:10:00.392Z,25.37
2019-03-27T22:12:32.979Z,26.60
2019-03-27T22:15:05.232Z,26.00
2019-03-27T22:17:38.535Z,25.57
2019-03-27T22:20:10.051Z,29.20
2019-03-27T22:22:41.294Z,26.73
2019-03-27T22:25:13.961Z,25.83
2019-03-27T22:27:46.529Z,26.23
2019-03-27T22:30:17.916Z,28.67
2019-03-27T22:32:49.689Z,29.23
2019-03-27T22:35:22.891Z,24.53
2019-03-27T22:37:54.219Z,25.87
2019-03-27T22:40:26.338Z,26.67
2019-03-27T22:42:57.615Z,21.17
2019-03-27T22:45:28.901Z,27.67
2019-03-27T22:48:04.330Z,23.43
2019-03-27T22:50:37.470Z,23.63
2019-03-27T22:53:09.066Z,25.13
2019-03-27T22:55:49.588Z,24.50
2019-03-27T22:58:13.949Z,27.47
2019-03-27T23:00:50.877Z,27.50
2019-03-27T23:03:22.938Z,28.37
2019-03-27T23:05:56.795Z,24.80
2019-03-27T23:08:27.451Z,29.73
2019-03-27T23:10:58.806Z,27.20
2019-03-27T23:13:30.094Z,29.53
2019-03-27T23:16:01.555Z,23.40
2019-03-27T23:18:32.804Z,32.23
2019-03-27T23:21:04.117Z,27.10
2019-03-27T23:23:35.485Z,32.40
2019-03-27T23:26:06.728Z,26.67
2019-03-27T23:28:38.004Z,30.03
2019-03-27T23:31:09.282Z,22.83
2019-03-27T23:33:40.791Z,26.37
2019-03-27T23:36:12.372Z,28.97
2019-03-27T23:38:43.728Z,29.77
2019-03-27T23:41:15.027Z,25.80
2019-03-27T23:43:46.403Z,33.17
2019-03-27T23:46:17.832Z,25.03
2019-03-27T23:48:49.214Z,23.10
2019-03-27T23:51:20.529Z,26.73
2019-03-27T23:53:51.809Z,27.90
2019-03-27T23:56:23.529Z,24.33
2019-03-27T23:58:54.774Z,25.17
